Terminal Aerodrome Forecast
Issued by NWS

Home | Current Version | Previous Version | Graphics & Text | Print | Product List | Glossary Off
Versions: 1 2 3 4 5 6 7 8 9 10 11 12 13 14 15 16 17 18 19 20 21 22 23 24 25 26

000
FTUS43 KABR 240523
TAFPIR
TAF
KPIR 240523Z 2406/2506 VRB05KT 6SM -SN OVC015
     FM240900 07011KT 5SM -SN OVC008
     FM241400 04014KT 2SM -SN OVC008
     FM241700 03018G25KT 1SM -SN BLSN OVC008
     FM250100 35020G28KT 1SM -SN BLSN OVC010=

USA.gov is the U.S. government's official web portal to all federal, state and local government web resources and services.